Time;durP1;ratioP1;P1;durP2;ratioP2;P2;SDS_P1;SDS_P2;PMS_P1;PMS_P2;Temp;Humidity;BMP_temperature;BMP_pressure;BME280_temperature;BME280_humidity;BME280_pressure;Samples;Min_cycle;Max_cycle;Signal;HPM_P1;HPM_P2
2021/05/31 00:01:18;;;;;;;;;;;8.00;97.20;;;;;;5089977;28;19957;-72
2021/05/31 00:03:43;;;;;;;;;;;8.00;96.90;;;;;;5092995;28;19908;-72
2021/05/31 00:06:09;;;;;;;;;;;7.90;97.10;;;;;;5092195;28;19914;-72
2021/05/31 00:08:34;;;;;;;;;;;7.80;97.20;;;;;;5092358;28;19912;-75
2021/05/31 00:11:00;;;;;;;;;;;7.70;97.40;;;;;;5092481;28;19912;-72
2021/05/31 00:13:27;;;;;;;;;;;7.60;97.50;;;;;;5092341;28;19990;-72
2021/05/31 00:15:53;;;;;;;;;;;7.50;97.70;;;;;;5091238;28;19916;-72
2021/05/31 00:18:19;;;;;;;;;;;7.50;97.90;;;;;;5092277;28;19954;-74
2021/05/31 00:20:45;;;;;;;;;;;7.50;98.00;;;;;;5092165;28;19993;-72
2021/05/31 00:23:10;;;;;;;;;;;7.50;98.10;;;;;;5092237;28;20273;-72
2021/05/31 00:25:36;;;;;;;;;;;7.40;98.10;;;;;;5091692;28;19908;-72
2021/05/31 00:28:02;;;;;;;;;;;7.40;98.20;;;;;;5091891;28;19909;-72
2021/05/31 00:30:27;;;;;;;;;;;7.30;98.30;;;;;;5091439;28;19965;-72
2021/05/31 00:32:53;;;;;;;;;;;7.30;98.50;;;;;;5112057;28;19908;-72
2021/05/31 00:35:19;;;;;;;;;;;7.20;98.80;;;;;;5112110;28;20529;-72
2021/05/31 00:37:45;;;;;;;;;;;7.20;99.00;;;;;;5111520;28;19912;-71
2021/05/31 00:40:11;;;;;;;;;;;7.20;99.20;;;;;;5112365;28;19916;-71
2021/05/31 00:42:36;;;;;;;;;;;7.20;99.40;;;;;;5112439;28;19919;-71
2021/05/31 00:45:03;;;;;;;;;;;7.10;99.90;;;;;;5112120;28;19908;-71
2021/05/31 00:47:29;;;;;;;;;;;7.10;99.60;;;;;;5111047;28;19912;-71
2021/05/31 00:49:54;;;;;;;;;;;7.10;99.60;;;;;;5111986;28;19937;-71
2021/05/31 00:52:21;;;;;;;;;;;7.00;99.70;;;;;;5112017;28;19915;-72
2021/05/31 00:54:46;;;;;;;;;;;7.00;99.90;;;;;;5112060;28;19961;-71
2021/05/31 00:57:12;;;;;;;;;;;7.00;99.90;;;;;;5111247;28;19907;-72
2021/05/31 00:59:37;;;;;;;;;;;6.90;99.90;;;;;;5111768;28;19912;-71
2021/05/31 01:02:03;;;;;;;;;;;7.00;99.90;;;;;;5092052;28;19915;-71
2021/05/31 01:04:29;;;;;;;;;;;6.90;99.90;;;;;;5091650;28;19915;-71
2021/05/31 01:07:04;;;;;;;;;;;6.90;99.90;;;;;;5090720;28;19951;-71
2021/05/31 01:09:34;;;;;;;;;;;6.90;99.90;;;;;;5091436;28;19916;-71
2021/05/31 01:12:06;;;;;;;;;;;6.80;99.90;;;;;;5091528;28;20058;-74
2021/05/31 01:14:35;;;;;;;;;;;6.80;99.90;;;;;;5091392;28;19996;-72
2021/05/31 01:17:13;;;;;;;;;;;6.70;99.90;;;;;;5090328;28;19954;-71
2021/05/31 01:19:39;;;;;;;;;;;6.60;99.90;;;;;;5091235;28;19985;-71
2021/05/31 01:22:09;;;;;;;;;;;6.60;99.90;;;;;;5091377;28;19966;-73
2021/05/31 01:24:43;;;;;;;;;;;6.60;99.90;;;;;;5091211;28;19912;-74
2021/05/31 01:27:15;;;;;;;;;;;6.50;99.90;;;;;;5090549;28;19945;-71
2021/05/31 01:29:43;;;;;;;;;;;6.50;99.90;;;;;;5090873;28;20224;-71
2021/05/31 01:32:12;;;;;;;;;;;6.50;99.90;;;;;;5088823;28;19915;-73
2021/05/31 01:34:40;;;;;;;;;;;6.50;99.90;;;;;;5090995;28;20463;-71
2021/05/31 01:37:10;;;;;;;;;;;6.50;99.90;;;;;;5090377;28;19915;-71
2021/05/31 01:39:37;;;;;;;;;;;6.50;99.90;;;;;;5090861;28;20069;-71
2021/05/31 01:42:03;;;;;;;;;;;6.40;99.90;;;;;;5087473;28;20059;-71
2021/05/31 01:44:28;;;;;;;;;;;6.40;99.90;;;;;;5091064;28;20006;-71
2021/05/31 01:46:54;;;;;;;;;;;6.30;99.90;;;;;;5090171;28;20320;-71
2021/05/31 01:49:20;;;;;;;;;;;6.20;99.90;;;;;;5090980;28;19918;-71
2021/05/31 01:51:47;;;;;;;;;;;6.10;99.90;;;;;;5091949;28;19908;-72
2021/05/31 01:54:13;;;;;;;;;;;6.10;99.90;;;;;;5094974;28;19915;-71
2021/05/31 01:56:42;;;;;;;;;;;6.10;99.90;;;;;;5093940;28;20429;-71
2021/05/31 01:59:07;;;;;;;;;;;6.10;99.90;;;;;;5094750;28;19908;-74
2021/05/31 02:01:33;;;;;;;;;;;6.10;99.90;;;;;;5092193;28;19915;-71
2021/05/31 02:03:59;;;;;;;;;;;6.00;99.90;;;;;;5094696;28;20163;-71
2021/05/31 02:06:25;;;;;;;;;;;6.00;99.90;;;;;;5093963;28;20369;-71
2021/05/31 02:08:50;;;;;;;;;;;5.90;99.90;;;;;;5094586;28;19908;-70
2021/05/31 02:11:22;;;;;;;;;;;5.90;99.90;;;;;;5094901;28;19908;-71
2021/05/31 02:13:49;;;;;;;;;;;5.90;99.90;;;;;;5094510;28;19973;-71
2021/05/31 02:16:29;;;;;;;;;;;5.90;99.90;;;;;;5093572;28;20392;-71
2021/05/31 02:18:57;;;;;;;;;;;5.80;99.90;;;;;;5094584;28;19919;-71
2021/05/31 02:21:23;;;;;;;;;;;5.80;99.90;;;;;;5094934;28;20293;-72
2021/05/31 02:23:49;;;;;;;;;;;5.80;99.90;;;;;;5094172;28;19909;-72
2021/05/31 02:26:17;;;;;;;;;;;5.70;99.90;;;;;;5093653;28;19908;-71
2021/05/31 02:28:43;;;;;;;;;;;5.70;99.90;;;;;;5094298;28;19908;-71
2021/05/31 02:31:09;;;;;;;;;;;5.60;99.90;;;;;;5091736;28;19965;-71
2021/05/31 02:33:35;;;;;;;;;;;5.60;99.90;;;;;;5093962;28;19935;-71
2021/05/31 02:36:01;;;;;;;;;;;5.50;99.90;;;;;;5093543;28;20258;-71
2021/05/31 02:38:27;;;;;;;;;;;5.50;99.90;;;;;;5093915;28;19995;-71
2021/05/31 02:40:52;;;;;;;;;;;5.40;99.90;;;;;;5093963;28;20003;-72
2021/05/31 02:43:18;;;;;;;;;;;5.40;99.90;;;;;;5094038;28;19908;-74
2021/05/31 02:45:44;;;;;;;;;;;5.30;99.90;;;;;;5093222;28;19947;-71
2021/05/31 02:48:09;;;;;;;;;;;5.30;99.90;;;;;;5093673;28;20369;-71
2021/05/31 02:50:35;;;;;;;;;;;5.20;99.90;;;;;;5093819;28;19915;-71
2021/05/31 02:53:01;;;;;;;;;;;5.20;99.90;;;;;;5093626;28;19915;-71
2021/05/31 02:55:28;;;;;;;;;;;5.20;99.90;;;;;;5093596;28;19908;-72
2021/05/31 02:57:53;;;;;;;;;;;5.20;99.90;;;;;;5092957;28;19916;-71
2021/05/31 03:00:20;;;;;;;;;;;5.20;99.90;;;;;;5092151;28;19965;-72
2021/05/31 03:02:46;;;;;;;;;;;5.20;99.90;;;;;;5113159;28;19908;-71
2021/05/31 03:05:16;;;;;;;;;;;5.20;99.90;;;;;;5113381;28;19915;-70
2021/05/31 03:07:41;;;;;;;;;;;5.10;99.90;;;;;;5112632;28;20276;-72
2021/05/31 03:10:07;;;;;;;;;;;5.10;99.90;;;;;;5113530;28;19919;-72
2021/05/31 03:12:34;;;;;;;;;;;5.00;99.90;;;;;;5113345;28;19907;-73
2021/05/31 03:14:59;;;;;;;;;;;5.00;99.90;;;;;;5113552;28;19908;-72
2021/05/31 03:17:25;;;;;;;;;;;5.00;99.90;;;;;;5112400;28;19915;-74
2021/05/31 03:19:50;;;;;;;;;;;4.90;99.90;;;;;;5113433;28;19966;-72
2021/05/31 03:22:16;;;;;;;;;;;4.70;99.90;;;;;;5113602;28;19907;-71
2021/05/31 03:24:42;;;;;;;;;;;4.70;99.90;;;;;;5113448;28;19951;-71
2021/05/31 03:27:07;;;;;;;;;;;4.70;99.90;;;;;;5112870;28;19908;-71
2021/05/31 03:29:33;;;;;;;;;;;4.70;99.90;;;;;;5113325;28;20348;-72
2021/05/31 03:31:58;;;;;;;;;;;4.70;99.90;;;;;;5094163;28;20558;-72
2021/05/31 03:34:24;;;;;;;;;;;4.70;99.90;;;;;;5111022;28;19912;-72
2021/05/31 03:36:49;;;;;;;;;;;4.70;99.90;;;;;;5112457;28;19916;-73
2021/05/31 03:39:15;;;;;;;;;;;4.70;99.90;;;;;;5113204;28;19907;-71
2021/05/31 03:41:40;;;;;;;;;;;4.70;99.90;;;;;;5113036;28;20292;-71
2021/05/31 03:44:06;;;;;;;;;;;4.70;99.90;;;;;;5113061;28;19915;-72
2021/05/31 03:46:31;;;;;;;;;;;4.70;99.90;;;;;;5112159;28;20005;-73
2021/05/31 03:48:57;;;;;;;;;;;4.70;99.90;;;;;;5112678;28;20361;-72
2021/05/31 03:51:23;;;;;;;;;;;4.70;99.90;;;;;;5113353;28;19912;-71
2021/05/31 03:53:49;;;;;;;;;;;4.70;99.90;;;;;;5112917;28;19908;-71
2021/05/31 03:56:14;;;;;;;;;;;4.70;99.90;;;;;;5112250;28;19911;-72
2021/05/31 03:58:42;;;;;;;;;;;4.70;99.90;;;;;;5112896;28;20381;-73
2021/05/31 04:01:08;;;;;;;;;;;4.80;99.90;;;;;;5101134;28;19916;-71
2021/05/31 04:03:35;;;;;;;;;;;4.80;99.90;;;;;;5091975;28;19909;-71
2021/05/31 04:11:37;;;;;;;;;;;5.00;99.90;;;;;;5092622;28;20269;-72
2021/05/31 04:14:12;;;;;;;;;;;5.10;99.90;;;;;;5091724;28;19908;-72
2021/05/31 04:16:40;;;;;;;;;;;5.20;99.90;;;;;;5091201;28;19916;-72
2021/05/31 04:19:06;;;;;;;;;;;5.30;99.90;;;;;;5092129;28;19954;-72
2021/05/31 04:21:32;;;;;;;;;;;5.40;99.90;;;;;;5092212;28;20349;-71
2021/05/31 04:23:58;;;;;;;;;;;5.50;99.90;;;;;;5091703;28;19919;-72
2021/05/31 04:26:24;;;;;;;;;;;5.50;99.90;;;;;;5091361;28;19908;-72
2021/05/31 04:28:50;;;;;;;;;;;5.60;99.90;;;;;;5091717;28;20289;-72
2021/05/31 04:31:15;;;;;;;;;;;5.70;99.90;;;;;;5091799;28;19954;-72
2021/05/31 04:33:41;;;;;;;;;;;5.80;99.90;;;;;;5091536;28;20326;-72
2021/05/31 04:36:06;;;;;;;;;;;5.90;99.90;;;;;;5091086;28;19912;-72
2021/05/31 04:38:32;;;;;;;;;;;6.00;99.90;;;;;;5091725;28;19916;-71
2021/05/31 04:40:57;;;;;;;;;;;6.00;99.90;;;;;;5091618;28;20029;-71
2021/05/31 04:43:23;;;;;;;;;;;6.20;99.90;;;;;;5091543;28;19915;-73
2021/05/31 04:45:48;;;;;;;;;;;6.20;99.90;;;;;;5090834;28;20017;-71
2021/05/31 04:48:14;;;;;;;;;;;6.30;99.90;;;;;;5091303;28;20307;-71
2021/05/31 04:50:39;;;;;;;;;;;6.40;99.90;;;;;;5091538;28;19912;-72
2021/05/31 04:53:05;;;;;;;;;;;6.50;99.90;;;;;;5091470;28;19908;-73
2021/05/31 04:55:31;;;;;;;;;;;6.60;99.90;;;;;;5091389;28;19931;-71
2021/05/31 04:57:56;;;;;;;;;;;6.60;99.90;;;;;;5090673;28;20003;-71
2021/05/31 05:00:22;;;;;;;;;;;6.70;99.90;;;;;;5089216;28;19908;-72
2021/05/31 05:02:47;;;;;;;;;;;6.80;99.90;;;;;;5090813;28;19908;-73
2021/05/31 05:05:13;;;;;;;;;;;6.90;99.90;;;;;;5091283;28;19914;-72
2021/05/31 05:07:46;;;;;;;;;;;7.00;99.90;;;;;;5090831;28;20349;-72
2021/05/31 05:10:21;;;;;;;;;;;7.10;99.90;;;;;;5091294;28;19912;-71
2021/05/31 05:12:48;;;;;;;;;;;7.20;99.90;;;;;;5091239;28;19912;-71
2021/05/31 05:15:14;;;;;;;;;;;7.40;99.90;;;;;;5091216;28;19908;-71
2021/05/31 05:17:39;;;;;;;;;;;7.50;99.90;;;;;;5090231;28;20281;-73
2021/05/31 05:20:06;;;;;;;;;;;7.60;99.90;;;;;;5091161;28;19908;-71
2021/05/31 05:22:31;;;;;;;;;;;7.80;99.90;;;;;;5091128;28;20390;-71
2021/05/31 05:24:57;;;;;;;;;;;8.10;99.90;;;;;;5089850;28;20008;-71
2021/05/31 05:27:23;;;;;;;;;;;8.30;99.90;;;;;;5088595;28;19912;-71
2021/05/31 05:29:48;;;;;;;;;;;8.70;99.90;;;;;;5090973;28;19912;-72
2021/05/31 05:32:14;;;;;;;;;;;9.00;99.90;;;;;;5088668;28;19947;-72
2021/05/31 05:34:39;;;;;;;;;;;9.40;99.90;;;;;;5091114;28;19912;-71
2021/05/31 05:37:10;;;;;;;;;;;9.70;99.90;;;;;;5090262;28;19918;-72
2021/05/31 05:40:50;;;;;;;;;;;10.00;99.90;;;;;;5091020;28;19912;-71
2021/05/31 05:42:43;;;;;;;;;;;10.40;99.90;;;;;;5082667;28;19912;-73
2021/05/31 05:47:53;;;;;;;;;;;11.40;99.90;;;;;;5090048;28;19918;-71
2021/05/31 05:50:20;;;;;;;;;;;11.90;99.90;;;;;;5083604;28;19912;-73
2021/05/31 05:52:46;;;;;;;;;;;12.20;99.90;;;;;;5085404;28;19973;-72
2021/05/31 05:55:12;;;;;;;;;;;12.50;99.90;;;;;;5078480;28;19908;-72
2021/05/31 05:57:38;;;;;;;;;;;12.80;99.90;;;;;;5084758;28;19916;-72
2021/05/31 06:00:05;;;;;;;;;;;13.20;99.30;;;;;;5089698;28;19915;-71
2021/05/31 06:02:31;;;;;;;;;;;13.50;98.40;;;;;;5098984;28;19919;-73
2021/05/31 06:04:56;;;;;;;;;;;14.10;97.90;;;;;;5110624;28;19908;-72
2021/05/31 06:07:22;;;;;;;;;;;14.40;97.00;;;;;;5109934;28;19999;-71
2021/05/31 06:09:47;;;;;;;;;;;14.60;96.30;;;;;;5099289;28;19912;-72
2021/05/31 06:12:13;;;;;;;;;;;15.00;95.70;;;;;;5087232;28;19943;-71
2021/05/31 06:14:38;;;;;;;;;;;15.20;95.50;;;;;;5087062;28;19909;-71
2021/05/31 06:17:04;;;;;;;;;;;15.50;95.00;;;;;;5086825;28;20283;-72
2021/05/31 06:19:30;;;;;;;;;;;15.60;94.80;;;;;;5088205;28;19912;-73
2021/05/31 06:21:55;;;;;;;;;;;15.60;94.80;;;;;;5093950;28;20364;-72
2021/05/31 06:24:21;;;;;;;;;;;15.70;94.90;;;;;;5084172;28;19952;-69
2021/05/31 06:26:46;;;;;;;;;;;16.20;94.50;;;;;;5088139;28;19908;-69
2021/05/31 06:29:12;;;;;;;;;;;16.60;93.70;;;;;;5081661;28;20254;-70
2021/05/31 06:31:37;;;;;;;;;;;17.00;93.20;;;;;;5089490;28;20413;-71
2021/05/31 06:34:03;;;;;;;;;;;17.40;92.70;;;;;;5093419;28;19908;-69
2021/05/31 06:36:30;;;;;;;;;;;18.00;91.50;;;;;;5086879;28;19915;-69
2021/05/31 06:38:55;;;;;;;;;;;18.50;91.20;;;;;;5089151;28;19923;-72
2021/05/31 06:41:21;;;;;;;;;;;18.90;90.40;;;;;;5093575;28;20325;-70
2021/05/31 06:43:46;;;;;;;;;;;19.00;85.40;;;;;;5092757;28;19915;-71
2021/05/31 06:46:12;;;;;;;;;;;19.20;86.90;;;;;;5090164;28;19912;-71
2021/05/31 06:48:38;;;;;;;;;;;19.20;85.60;;;;;;5083061;28;20377;-70
2021/05/31 06:51:03;;;;;;;;;;;19.20;82.30;;;;;;5090878;28;19919;-71
2021/05/31 06:53:29;;;;;;;;;;;19.40;83.00;;;;;;5100066;28;19961;-70
2021/05/31 06:55:54;;;;;;;;;;;19.60;83.30;;;;;;5092518;28;19920;-71
2021/05/31 06:58:20;;;;;;;;;;;20.00;81.70;;;;;;5086387;28;20491;-71
2021/05/31 07:00:46;;;;;;;;;;;20.40;80.30;;;;;;5099157;28;19919;-70
2021/05/31 07:03:12;;;;;;;;;;;20.60;79.70;;;;;;5092394;28;19912;-70
2021/05/31 07:05:38;;;;;;;;;;;21.10;78.00;;;;;;5092305;28;19912;-72
2021/05/31 07:08:04;;;;;;;;;;;21.10;77.60;;;;;;5091729;28;20485;-70
2021/05/31 07:10:30;;;;;;;;;;;21.20;76.20;;;;;;5090913;28;20381;-71
2021/05/31 07:12:56;;;;;;;;;;;21.30;74.80;;;;;;5090493;28;20361;-71
2021/05/31 07:15:21;;;;;;;;;;;21.50;77.80;;;;;;5083859;28;19909;-71
2021/05/31 07:17:47;;;;;;;;;;;21.80;75.30;;;;;;5104136;28;20386;-71
2021/05/31 07:20:13;;;;;;;;;;;21.90;73.00;;;;;;5083414;28;19909;-73
2021/05/31 07:22:39;;;;;;;;;;;22.10;74.80;;;;;;5090084;28;20326;-71
2021/05/31 07:25:06;;;;;;;;;;;22.10;76.40;;;;;;5099168;28;19912;-71
2021/05/31 07:27:32;;;;;;;;;;;22.30;73.40;;;;;;5090339;28;19908;-70
2021/05/31 07:29:58;;;;;;;;;;;21.70;72.60;;;;;;5087234;28;19918;-71
2021/05/31 07:32:24;;;;;;;;;;;21.60;74.00;;;;;;5092256;28;19912;-70
2021/05/31 07:34:49;;;;;;;;;;;21.40;72.70;;;;;;5091346;28;19908;-71
2021/05/31 07:37:15;;;;;;;;;;;21.30;72.80;;;;;;5090594;28;19912;-72
2021/05/31 07:39:40;;;;;;;;;;;21.60;72.90;;;;;;5099033;28;20052;-71
2021/05/31 07:42:06;;;;;;;;;;;21.70;74.50;;;;;;5089844;28;19912;-71
2021/05/31 07:44:31;;;;;;;;;;;21.90;74.00;;;;;;5082114;28;20376;-72
2021/05/31 07:46:57;;;;;;;;;;;22.10;69.60;;;;;;5086790;28;20383;-72
2021/05/31 07:49:23;;;;;;;;;;;22.20;69.80;;;;;;5088491;28;19912;-71
2021/05/31 07:51:50;;;;;;;;;;;22.10;70.70;;;;;;5086300;28;19908;-71
2021/05/31 07:54:16;;;;;;;;;;;21.90;68.10;;;;;;5090087;28;19990;-71
2021/05/31 07:56:42;;;;;;;;;;;21.80;67.80;;;;;;5083938;28;20429;-71
2021/05/31 07:59:07;;;;;;;;;;;21.80;66.50;;;;;;5082820;28;20003;-72
2021/05/31 08:01:34;;;;;;;;;;;21.70;68.00;;;;;;5090997;28;20166;-71
2021/05/31 08:04:00;;;;;;;;;;;21.10;64.50;;;;;;5094717;28;20266;-72
2021/05/31 08:06:25;;;;;;;;;;;21.00;71.70;;;;;;5085341;28;19915;-71
2021/05/31 08:08:51;;;;;;;;;;;21.30;68.10;;;;;;5097359;28;19908;-71
2021/05/31 08:11:16;;;;;;;;;;;21.70;68.80;;;;;;5082801;28;19912;-71
2021/05/31 08:13:42;;;;;;;;;;;21.70;64.70;;;;;;5097279;28;20364;-73
2021/05/31 08:16:08;;;;;;;;;;;21.40;65.00;;;;;;5090491;28;19908;-71
2021/05/31 08:18:34;;;;;;;;;;;21.50;65.40;;;;;;5098002;28;19908;-71
2021/05/31 08:21:00;;;;;;;;;;;21.60;63.10;;;;;;5092259;28;20312;-72
2021/05/31 08:23:25;;;;;;;;;;;21.50;62.30;;;;;;5088300;28;19908;-71
2021/05/31 08:25:51;;;;;;;;;;;21.70;65.30;;;;;;5106976;28;19912;-70
2021/05/31 08:28:16;;;;;;;;;;;21.70;63.70;;;;;;5081347;28;19909;-71
2021/05/31 08:30:43;;;;;;;;;;;21.80;63.20;;;;;;5075080;28;19916;-72
2021/05/31 08:33:09;;;;;;;;;;;21.90;64.30;;;;;;5086717;28;19953;-72
2021/05/31 08:35:42;;;;;;;;;;;22.10;62.60;;;;;;5082946;28;20538;-72
2021/05/31 08:38:08;;;;;;;;;;;22.40;66.80;;;;;;5092941;28;20395;-71
2021/05/31 08:40:33;;;;;;;;;;;22.30;62.50;;;;;;5081418;28;19916;-70
2021/05/31 08:42:59;;;;;;;;;;;21.90;63.10;;;;;;5090198;28;19908;-70
2021/05/31 08:45:26;;;;;;;;;;;22.10;59.70;;;;;;5086874;28;19939;-73
2021/05/31 08:47:53;;;;;;;;;;;21.90;60.50;;;;;;5098623;28;19908;-71
2021/05/31 08:50:20;;;;;;;;;;;21.40;66.00;;;;;;5096929;28;19911;-71
2021/05/31 08:52:47;;;;;;;;;;;21.20;61.10;;;;;;5101811;28;19915;-71
2021/05/31 08:55:13;;;;;;;;;;;21.20;59.90;;;;;;5093973;28;19961;-71
2021/05/31 08:57:39;;;;;;;;;;;21.40;64.10;;;;;;5089541;28;19912;-72
2021/05/31 09:00:06;;;;;;;;;;;21.70;63.10;;;;;;5090161;28;20288;-70
2021/05/31 09:02:33;;;;;;;;;;;21.50;60.30;;;;;;5100030;28;19915;-70
2021/05/31 09:04:59;;;;;;;;;;;21.70;65.70;;;;;;5097029;28;20348;-71
2021/05/31 09:07:25;;;;;;;;;;;22.00;65.00;;;;;;5090562;28;19958;-71
2021/05/31 09:09:54;;;;;;;;;;;22.30;64.10;;;;;;5085944;28;19919;-72
2021/05/31 09:12:23;;;;;;;;;;;22.20;60.50;;;;;;5089187;28;19912;-73
2021/05/31 09:14:58;;;;;;;;;;;22.70;68.80;;;;;;5085961;28;19908;-71
2021/05/31 09:17:25;;;;;;;;;;;22.80;58.90;;;;;;5087046;28;19912;-70
2021/05/31 09:19:50;;;;;;;;;;;22.80;59.70;;;;;;5089166;28;19908;-70
2021/05/31 09:22:16;;;;;;;;;;;22.60;59.60;;;;;;5090484;28;19960;-70
2021/05/31 09:24:51;;;;;;;;;;;22.70;62.90;;;;;;5089723;28;19969;-70
2021/05/31 09:27:17;;;;;;;;;;;22.50;61.70;;;;;;5088554;28;20369;-71
2021/05/31 09:29:53;;;;;;;;;;;22.80;62.70;;;;;;5089983;28;19956;-71
2021/05/31 09:32:18;;;;;;;;;;;22.90;58.90;;;;;;5095537;28;19907;-70
2021/05/31 09:34:43;;;;;;;;;;;22.90;58.40;;;;;;5098459;28;20420;-70
2021/05/31 09:37:09;;;;;;;;;;;23.00;57.70;;;;;;5099080;28;19908;-71
2021/05/31 09:39:36;;;;;;;;;;;22.90;57.80;;;;;;5081004;28;19920;-70
2021/05/31 09:42:02;;;;;;;;;;;22.70;59.30;;;;;;5091708;28;19967;-70
2021/05/31 09:44:28;;;;;;;;;;;22.40;60.00;;;;;;5088731;28;20010;-70
2021/05/31 09:46:53;;;;;;;;;;;22.10;58.70;;;;;;5087450;28;19908;-70
2021/05/31 09:49:20;;;;;;;;;;;22.10;59.70;;;;;;5087742;28;19912;-70
2021/05/31 09:51:51;;;;;;;;;;;22.60;59.10;;;;;;5088376;28;19909;-70
2021/05/31 09:54:29;;;;;;;;;;;22.70;59.70;;;;;;5093068;28;20442;-71
2021/05/31 09:56:55;;;;;;;;;;;23.20;60.70;;;;;;5102000;28;19995;-70
2021/05/31 09:59:24;;;;;;;;;;;23.40;56.30;;;;;;5102985;28;20470;-70
2021/05/31 10:01:54;;;;;;;;;;;23.30;55.50;;;;;;5091907;28;19908;-70
2021/05/31 10:06:53;;;;;;;;;;;23.60;58.20;;;;;;5090645;28;19915;-71
2021/05/31 10:09:18;;;;;;;;;;;23.70;58.90;;;;;;5087253;28;19958;-70
2021/05/31 10:11:45;;;;;;;;;;;23.40;56.80;;;;;;5096012;28;19907;-70
2021/05/31 10:14:12;;;;;;;;;;;23.20;58.20;;;;;;5107429;28;19927;-70
2021/05/31 10:16:38;;;;;;;;;;;23.20;57.00;;;;;;5109818;28;19995;-71
2021/05/31 10:19:04;;;;;;;;;;;23.10;56.20;;;;;;5097658;28;20284;-71
2021/05/31 10:21:29;;;;;;;;;;;23.30;57.90;;;;;;5093142;28;19918;-71
2021/05/31 10:23:56;;;;;;;;;;;23.60;55.20;;;;;;5097009;28;19916;-71
2021/05/31 10:26:22;;;;;;;;;;;23.80;55.10;;;;;;5107298;28;19908;-70
2021/05/31 10:28:48;;;;;;;;;;;23.60;54.90;;;;;;5097521;28;19912;-71
2021/05/31 10:31:14;;;;;;;;;;;23.50;55.60;;;;;;5105895;28;20293;-72
2021/05/31 10:33:40;;;;;;;;;;;23.50;58.80;;;;;;5105931;28;19935;-71
2021/05/31 10:36:09;;;;;;;;;;;23.70;56.40;;;;;;5104790;28;19920;-71
2021/05/31 10:38:36;;;;;;;;;;;24.10;59.10;;;;;;5098891;28;19923;-71
2021/05/31 10:41:09;;;;;;;;;;;24.50;58.90;;;;;;5111021;28;19968;-70
2021/05/31 10:43:41;;;;;;;;;;;25.10;60.30;;;;;;5101288;28;19908;-71
2021/05/31 10:46:06;;;;;;;;;;;25.30;52.90;;;;;;5101526;28;19912;-71
2021/05/31 10:48:46;;;;;;;;;;;25.10;54.90;;;;;;5084830;28;19912;-70
2021/05/31 10:51:13;;;;;;;;;;;24.90;54.50;;;;;;5081490;28;19919;-70
2021/05/31 10:53:39;;;;;;;;;;;24.50;56.60;;;;;;5105690;28;20653;-70
2021/05/31 10:56:09;;;;;;;;;;;24.60;58.20;;;;;;5101920;28;19912;-70
2021/05/31 10:58:35;;;;;;;;;;;24.60;54.10;;;;;;5109088;28;20022;-71
2021/05/31 11:01:09;;;;;;;;;;;24.70;58.90;;;;;;5094778;28;20064;-71
2021/05/31 11:03:49;;;;;;;;;;;25.00;55.70;;;;;;5106505;28;19908;-71
2021/05/31 11:06:17;;;;;;;;;;;25.20;55.70;;;;;;5105553;28;20486;-70
2021/05/31 11:08:56;;;;;;;;;;;24.70;53.00;;;;;;5097043;28;20281;-70
2021/05/31 11:11:29;;;;;;;;;;;24.40;56.40;;;;;;5084323;28;19922;-71
2021/05/31 11:13:55;;;;;;;;;;;24.50;56.60;;;;;;5103855;28;20388;-71
2021/05/31 11:16:21;;;;;;;;;;;24.50;53.30;;;;;;5102514;28;19912;-71
2021/05/31 11:18:47;;;;;;;;;;;24.20;54.30;;;;;;5096475;28;20301;-71
2021/05/31 11:21:27;;;;;;;;;;;23.90;56.80;;;;;;5089946;28;19912;-71
2021/05/31 11:24:18;;;;;;;;;;;23.90;55.70;;;;;;5089511;28;19908;-71
2021/05/31 11:26:44;;;;;;;;;;;24.00;59.20;;;;;;5072194;28;19912;-71
2021/05/31 11:29:10;;;;;;;;;;;24.40;57.70;;;;;;5080150;28;19915;-71
2021/05/31 11:31:37;;;;;;;;;;;24.70;55.60;;;;;;5104791;28;20257;-71
2021/05/31 11:34:03;;;;;;;;;;;24.80;57.20;;;;;;5101967;28;19916;-71
2021/05/31 11:36:37;;;;;;;;;;;24.90;54.70;;;;;;5100483;28;19916;-71
2021/05/31 11:39:21;;;;;;;;;;;25.10;56.70;;;;;;5093296;28;19908;-71
2021/05/31 11:41:48;;;;;;;;;;;25.50;58.40;;;;;;5093417;28;19995;-71
2021/05/31 11:44:34;;;;;;;;;;;25.80;58.30;;;;;;5092907;28;20361;-71
2021/05/31 11:47:01;;;;;;;;;;;25.90;53.90;;;;;;5090106;28;19951;-71
2021/05/31 11:49:27;;;;;;;;;;;25.80;55.70;;;;;;5086018;28;19912;-71
2021/05/31 11:52:06;;;;;;;;;;;25.50;53.00;;;;;;5092209;28;19916;-71
2021/05/31 11:54:33;;;;;;;;;;;25.30;53.80;;;;;;5091754;28;19908;-71
2021/05/31 11:57:00;;;;;;;;;;;25.40;55.90;;;;;;5092029;28;19981;-71
2021/05/31 11:59:30;;;;;;;;;;;25.30;53.40;;;;;;5092744;28;20334;-71
2021/05/31 12:01:55;;;;;;;;;;;25.10;53.70;;;;;;5091867;28;20373;-71
2021/05/31 12:04:24;;;;;;;;;;;25.10;53.80;;;;;;5092342;28;19953;-71
2021/05/31 12:07:00;;;;;;;;;;;24.80;53.40;;;;;;5091468;28;20365;-71
2021/05/31 12:09:25;;;;;;;;;;;24.60;54.60;;;;;;5092317;28;19908;-71
2021/05/31 12:11:52;;;;;;;;;;;24.40;52.30;;;;;;5092791;28;19908;-71
2021/05/31 12:14:19;;;;;;;;;;;24.30;54.20;;;;;;5092344;28;19908;-71
2021/05/31 12:17:01;;;;;;;;;;;24.10;55.80;;;;;;5091706;28;19912;-71
2021/05/31 12:19:27;;;;;;;;;;;24.00;54.10;;;;;;5092164;28;19908;-71
2021/05/31 12:21:56;;;;;;;;;;;24.10;55.30;;;;;;5092481;28;19915;-71
2021/05/31 12:24:22;;;;;;;;;;;24.20;54.10;;;;;;5092288;28;19961;-71
2021/05/31 12:26:48;;;;;;;;;;;24.30;52.90;;;;;;5091405;28;20365;-71
2021/05/31 12:29:13;;;;;;;;;;;24.20;53.10;;;;;;5092164;28;19915;-71
2021/05/31 12:31:39;;;;;;;;;;;24.30;54.40;;;;;;5089894;28;19908;-71
2021/05/31 12:34:04;;;;;;;;;;;24.60;54.70;;;;;;5089800;28;19914;-71
2021/05/31 12:36:30;;;;;;;;;;;24.80;54.00;;;;;;5073045;28;19912;-71
2021/05/31 12:38:56;;;;;;;;;;;24.80;52.00;;;;;;5071709;28;19958;-71
2021/05/31 12:41:23;;;;;;;;;;;25.00;55.00;;;;;;5071722;28;19971;-71
2021/05/31 12:43:48;;;;;;;;;;;25.10;54.90;;;;;;5071435;28;19958;-71
2021/05/31 12:46:17;;;;;;;;;;;25.20;54.10;;;;;;5071165;28;19908;-71
2021/05/31 12:48:46;;;;;;;;;;;25.00;50.80;;;;;;5070733;28;20281;-71
2021/05/31 12:51:15;;;;;;;;;;;25.00;51.70;;;;;;5071561;28;19913;-71
2021/05/31 12:53:41;;;;;;;;;;;25.10;52.90;;;;;;5087075;28;19951;-71
2021/05/31 12:56:07;;;;;;;;;;;25.30;50.30;;;;;;5109855;28;20006;-71
2021/05/31 12:58:33;;;;;;;;;;;25.20;51.00;;;;;;5111882;28;19939;-71
2021/05/31 13:00:58;;;;;;;;;;;25.00;50.50;;;;;;5107374;28;19950;-71
2021/05/31 13:03:30;;;;;;;;;;;25.00;52.90;;;;;;5099036;28;20401;-71
2021/05/31 13:05:56;;;;;;;;;;;24.90;50.60;;;;;;5089032;28;20388;-71
2021/05/31 13:08:21;;;;;;;;;;;24.90;52.00;;;;;;5090957;28;19908;-71
2021/05/31 13:10:48;;;;;;;;;;;25.00;55.60;;;;;;5091309;28;20369;-71
2021/05/31 13:13:15;;;;;;;;;;;25.30;55.60;;;;;;5091351;28;20007;-71
2021/05/31 13:16:10;;;;;;;;;;;25.60;50.50;;;;;;5091072;28;19985;-71
2021/05/31 13:18:43;;;;;;;;;;;25.50;51.40;;;;;;5081020;28;19919;-71
2021/05/31 13:21:29;;;;;;;;;;;25.20;51.40;;;;;;5084631;28;19935;-71
2021/05/31 13:23:54;;;;;;;;;;;25.40;54.90;;;;;;5069382;28;19964;-71
2021/05/31 13:26:23;;;;;;;;;;;25.60;50.50;;;;;;5085269;28;19912;-71
2021/05/31 13:28:54;;;;;;;;;;;25.30;51.80;;;;;;5083152;28;20014;-71
2021/05/31 13:31:20;;;;;;;;;;;25.30;49.60;;;;;;5087213;28;20024;-71
2021/05/31 13:33:49;;;;;;;;;;;25.40;51.40;;;;;;5090432;28;19912;-71
2021/05/31 13:36:16;;;;;;;;;;;25.30;45.70;;;;;;5082244;28;19916;-70
2021/05/31 13:38:41;;;;;;;;;;;25.20;47.70;;;;;;5077974;28;19916;-70
2021/05/31 13:41:07;;;;;;;;;;;25.40;50.60;;;;;;5080710;28;20315;-71
2021/05/31 13:43:36;;;;;;;;;;;25.50;48.10;;;;;;5090372;28;19915;-71
2021/05/31 13:46:02;;;;;;;;;;;25.50;45.70;;;;;;5086244;28;20292;-71
2021/05/31 13:48:27;;;;;;;;;;;25.70;48.00;;;;;;5083705;28;20003;-71
2021/05/31 13:50:55;;;;;;;;;;;26.00;48.20;;;;;;5083358;28;20344;-71
2021/05/31 13:53:21;;;;;;;;;;;26.20;44.60;;;;;;5090207;28;20115;-71
2021/05/31 13:55:47;;;;;;;;;;;26.40;43.90;;;;;;5079700;28;19913;-71
2021/05/31 13:58:15;;;;;;;;;;;26.40;46.00;;;;;;5075361;28;19913;-71
2021/05/31 14:00:41;;;;;;;;;;;26.30;47.00;;;;;;5090529;28;19908;-71
2021/05/31 14:03:07;;;;;;;;;;;26.50;51.30;;;;;;5094300;28;20387;-71
2021/05/31 14:05:34;;;;;;;;;;;26.70;49.60;;;;;;5085749;28;19909;-70
2021/05/31 14:08:00;;;;;;;;;;;26.70;50.00;;;;;;5076942;28;20380;-70
2021/05/31 14:10:26;;;;;;;;;;;26.80;47.40;;;;;;5089870;28;20178;-72
2021/05/31 14:12:52;;;;;;;;;;;26.20;46.40;;;;;;5080017;28;20289;-71
2021/05/31 14:15:18;;;;;;;;;;;26.20;47.30;;;;;;5089688;28;20288;-71
2021/05/31 14:17:44;;;;;;;;;;;26.10;46.10;;;;;;5080990;28;20362;-71
2021/05/31 14:20:10;;;;;;;;;;;26.00;47.50;;;;;;5082756;28;19916;-71
2021/05/31 14:22:36;;;;;;;;;;;25.80;49.10;;;;;;5089130;28;20043;-71
2021/05/31 14:25:03;;;;;;;;;;;26.00;48.40;;;;;;5087399;28;19963;-71
2021/05/31 14:27:28;;;;;;;;;;;26.10;47.40;;;;;;5083277;28;19953;-70
2021/05/31 14:29:54;;;;;;;;;;;25.70;47.70;;;;;;5096016;28;19915;-71
2021/05/31 14:32:19;;;;;;;;;;;25.30;46.60;;;;;;5082687;28;19908;-71